sensor_id;sensor_type;location;lat;lon;timestamp;temperature;humidity
19214;DHT22;9741;51.020;5.304;2022-09-09T00:02:14;16.60;73.10
19214;DHT22;9741;51.020;5.304;2022-09-09T00:04:51;16.50;73.50
19214;DHT22;9741;51.020;5.304;2022-09-09T00:07:24;16.60;73.10
19214;DHT22;9741;51.020;5.304;2022-09-09T00:09:58;16.60;73.20
19214;DHT22;9741;51.020;5.304;2022-09-09T00:12:33;16.60;73.20
19214;DHT22;9741;51.020;5.304;2022-09-09T00:15:04;16.70;73.20
19214;DHT22;9741;51.020;5.304;2022-09-09T00:17:36;16.60;73.10
19214;DHT22;9741;51.020;5.304;2022-09-09T00:20:13;16.70;73.20
19214;DHT22;9741;51.020;5.304;2022-09-09T00:22:44;16.70;73.20
19214;DHT22;9741;51.020;5.304;2022-09-09T00:25:19;16.60;73.00
19214;DHT22;9741;51.020;5.304;2022-09-09T00:27:49;16.60;72.90
19214;DHT22;9741;51.020;5.304;2022-09-09T00:30:18;16.60;72.80
19214;DHT22;9741;51.020;5.304;2022-09-09T00:32:49;16.50;72.70
19214;DHT22;9741;51.020;5.304;2022-09-09T00:35:22;16.50;72.80
19214;DHT22;9741;51.020;5.304;2022-09-09T00:37:53;16.50;72.80
19214;DHT22;9741;51.020;5.304;2022-09-09T00:40:25;16.50;72.80
19214;DHT22;9741;51.020;5.304;2022-09-09T00:43:07;16.40;72.70
19214;DHT22;9741;51.020;5.304;2022-09-09T00:45:57;16.40;72.60
19214;DHT22;9741;51.020;5.304;2022-09-09T00:48:33;16.40;72.60
19214;DHT22;9741;51.020;5.304;2022-09-09T00:51:08;16.40;72.60
19214;DHT22;9741;51.020;5.304;2022-09-09T00:53:51;16.30;72.40
19214;DHT22;9741;51.020;5.304;2022-09-09T00:56:26;16.30;72.30
19214;DHT22;9741;51.020;5.304;2022-09-09T00:59:03;16.20;72.20
19214;DHT22;9741;51.020;5.304;2022-09-09T01:01:33;16.20;72.20
19214;DHT22;9741;51.020;5.304;2022-09-09T01:04:05;16.10;72.20
19214;DHT22;9741;51.020;5.304;2022-09-09T01:06:38;16.10;72.40
19214;DHT22;9741;51.020;5.304;2022-09-09T01:09:11;16.00;72.30
19214;DHT22;9741;51.020;5.304;2022-09-09T01:11:50;16.00;72.30
19214;DHT22;9741;51.020;5.304;2022-09-09T01:14:29;16.00;72.30
19214;DHT22;9741;51.020;5.304;2022-09-09T01:17:00;16.00;72.40
19214;DHT22;9741;51.020;5.304;2022-09-09T01:19:38;15.90;72.30
19214;DHT22;9741;51.020;5.304;2022-09-09T01:22:15;15.90;72.30
19214;DHT22;9741;51.020;5.304;2022-09-09T01:25:05;15.90;72.30
19214;DHT22;9741;51.020;5.304;2022-09-09T01:27:38;15.90;72.30
19214;DHT22;9741;51.020;5.304;2022-09-09T01:30:09;15.80;72.30
19214;DHT22;9741;51.020;5.304;2022-09-09T01:32:41;15.80;72.40
19214;DHT22;9741;51.020;5.304;2022-09-09T01:35:12;15.80;72.40
19214;DHT22;9741;51.020;5.304;2022-09-09T01:37:39;15.80;72.40
19214;DHT22;9741;51.020;5.304;2022-09-09T01:40:08;15.80;72.40
19214;DHT22;9741;51.020;5.304;2022-09-09T01:42:37;15.80;72.40
19214;DHT22;9741;51.020;5.304;2022-09-09T01:45:05;15.80;72.40
19214;DHT22;9741;51.020;5.304;2022-09-09T01:47:32;15.80;72.40
19214;DHT22;9741;51.020;5.304;2022-09-09T01:49:59;15.80;72.40
19214;DHT22;9741;51.020;5.304;2022-09-09T01:52:28;15.80;72.30
19214;DHT22;9741;51.020;5.304;2022-09-09T01:54:56;15.70;72.20
19214;DHT22;9741;51.020;5.304;2022-09-09T01:57:26;15.70;72.30
19214;DHT22;9741;51.020;5.304;2022-09-09T02:00:03;15.70;72.30
19214;DHT22;9741;51.020;5.304;2022-09-09T02:02:36;15.70;72.30
19214;DHT22;9741;51.020;5.304;2022-09-09T02:05:14;15.70;72.30
19214;DHT22;9741;51.020;5.304;2022-09-09T02:07:47;15.70;72.30
19214;DHT22;9741;51.020;5.304;2022-09-09T02:10:19;15.60;72.20
19214;DHT22;9741;51.020;5.304;2022-09-09T02:12:49;15.60;72.20
19214;DHT22;9741;51.020;5.304;2022-09-09T02:15:24;15.60;72.30
19214;DHT22;9741;51.020;5.304;2022-09-09T02:17:57;15.60;72.30
19214;DHT22;9741;51.020;5.304;2022-09-09T02:20:26;15.60;72.30
19214;DHT22;9741;51.020;5.304;2022-09-09T02:22:56;15.60;72.40
19214;DHT22;9741;51.020;5.304;2022-09-09T02:25:26;15.60;72.50
19214;DHT22;9741;51.020;5.304;2022-09-09T02:27:54;15.60;72.60
19214;DHT22;9741;51.020;5.304;2022-09-09T02:30:22;15.60;72.60
19214;DHT22;9741;51.020;5.304;2022-09-09T02:32:51;15.60;72.70
19214;DHT22;9741;51.020;5.304;2022-09-09T02:35:23;15.60;72.80
19214;DHT22;9741;51.020;5.304;2022-09-09T02:37:54;15.60;72.80
19214;DHT22;9741;51.020;5.304;2022-09-09T02:40:24;15.60;72.80
19214;DHT22;9741;51.020;5.304;2022-09-09T02:42:54;15.70;72.90
19214;DHT22;9741;51.020;5.304;2022-09-09T02:45:25;15.70;72.80
19214;DHT22;9741;51.020;5.304;2022-09-09T02:48:01;15.70;72.80
19214;DHT22;9741;51.020;5.304;2022-09-09T02:50:33;15.70;72.70
19214;DHT22;9741;51.020;5.304;2022-09-09T02:53:07;15.70;72.60
19214;DHT22;9741;51.020;5.304;2022-09-09T02:55:41;15.70;72.60
19214;DHT22;9741;51.020;5.304;2022-09-09T02:58:15;15.60;72.40
19214;DHT22;9741;51.020;5.304;2022-09-09T03:00:46;15.60;72.40
19214;DHT22;9741;51.020;5.304;2022-09-09T03:03:14;15.60;72.30
19214;DHT22;9741;51.020;5.304;2022-09-09T03:05:42;15.50;72.30
19214;DHT22;9741;51.020;5.304;2022-09-09T03:08:09;15.50;72.30
19214;DHT22;9741;51.020;5.304;2022-09-09T03:10:36;15.50;72.30
19214;DHT22;9741;51.020;5.304;2022-09-09T03:13:04;15.50;72.50
19214;DHT22;9741;51.020;5.304;2022-09-09T03:15:31;15.50;72.50
19214;DHT22;9741;51.020;5.304;2022-09-09T03:18:00;15.50;72.50
19214;DHT22;9741;51.020;5.304;2022-09-09T03:20:30;15.40;72.60
19214;DHT22;9741;51.020;5.304;2022-09-09T03:22:59;15.50;72.80
19214;DHT22;9741;51.020;5.304;2022-09-09T03:25:26;15.50;73.00
19214;DHT22;9741;51.020;5.304;2022-09-09T03:27:55;15.50;73.20
19214;DHT22;9741;51.020;5.304;2022-09-09T03:30:22;15.60;73.50
19214;DHT22;9741;51.020;5.304;2022-09-09T03:32:49;15.60;73.60
19214;DHT22;9741;51.020;5.304;2022-09-09T03:35:18;15.70;73.80
19214;DHT22;9741;51.020;5.304;2022-09-09T03:37:45;15.70;73.90
19214;DHT22;9741;51.020;5.304;2022-09-09T03:40:13;15.80;74.00
19214;DHT22;9741;51.020;5.304;2022-09-09T03:42:40;15.90;74.10
19214;DHT22;9741;51.020;5.304;2022-09-09T03:45:09;16.00;74.20
19214;DHT22;9741;51.020;5.304;2022-09-09T03:47:37;16.00;74.20
19214;DHT22;9741;51.020;5.304;2022-09-09T03:50:05;16.10;74.30
19214;DHT22;9741;51.020;5.304;2022-09-09T03:52:36;16.10;74.30
19214;DHT22;9741;51.020;5.304;2022-09-09T03:55:05;16.20;74.30
19214;DHT22;9741;51.020;5.304;2022-09-09T03:57:32;16.20;74.30
19214;DHT22;9741;51.020;5.304;2022-09-09T04:00:01;16.30;74.30
19214;DHT22;9741;51.020;5.304;2022-09-09T04:02:28;16.30;74.30
19214;DHT22;9741;51.020;5.304;2022-09-09T04:04:55;16.30;74.20
19214;DHT22;9741;51.020;5.304;2022-09-09T04:07:22;16.40;74.20
19214;DHT22;9741;51.020;5.304;2022-09-09T04:09:51;16.40;74.30
19214;DHT22;9741;51.020;5.304;2022-09-09T04:12:18;16.40;74.20
19214;DHT22;9741;51.020;5.304;2022-09-09T04:14:46;16.40;74.20
19214;DHT22;9741;51.020;5.304;2022-09-09T04:17:13;16.40;74.10
19214;DHT22;9741;51.020;5.304;2022-09-09T04:19:40;16.40;74.60
19214;DHT22;9741;51.020;5.304;2022-09-09T04:22:08;16.40;74.00
19214;DHT22;9741;51.020;5.304;2022-09-09T04:24:35;16.40;73.90
19214;DHT22;9741;51.020;5.304;2022-09-09T04:27:03;16.40;73.80
19214;DHT22;9741;51.020;5.304;2022-09-09T04:29:32;16.40;73.80
19214;DHT22;9741;51.020;5.304;2022-09-09T04:31:59;16.30;73.70
19214;DHT22;9741;51.020;5.304;2022-09-09T04:34:26;16.30;73.70
19214;DHT22;9741;51.020;5.304;2022-09-09T04:36:54;16.30;73.70
19214;DHT22;9741;51.020;5.304;2022-09-09T04:39:22;16.30;73.70
19214;DHT22;9741;51.020;5.304;2022-09-09T04:41:49;16.20;73.70
19214;DHT22;9741;51.020;5.304;2022-09-09T04:44:18;16.20;73.70
19214;DHT22;9741;51.020;5.304;2022-09-09T04:46:45;16.20;73.90
19214;DHT22;9741;51.020;5.304;2022-09-09T04:49:18;16.20;74.00
19214;DHT22;9741;51.020;5.304;2022-09-09T04:51:45;16.20;74.00
19214;DHT22;9741;51.020;5.304;2022-09-09T04:54:12;16.20;74.10
19214;DHT22;9741;51.020;5.304;2022-09-09T04:56:39;16.20;74.10
19214;DHT22;9741;51.020;5.304;2022-09-09T04:59:07;16.20;74.00
19214;DHT22;9741;51.020;5.304;2022-09-09T05:01:36;16.20;74.00
19214;DHT22;9741;51.020;5.304;2022-09-09T05:04:03;16.20;74.00
19214;DHT22;9741;51.020;5.304;2022-09-09T05:06:31;16.20;74.00
19214;DHT22;9741;51.020;5.304;2022-09-09T05:08:58;16.20;73.90
19214;DHT22;9741;51.020;5.304;2022-09-09T05:11:27;16.20;73.90
19214;DHT22;9741;51.020;5.304;2022-09-09T05:13:54;16.20;74.00
19214;DHT22;9741;51.020;5.304;2022-09-09T05:16:21;16.10;73.90
19214;DHT22;9741;51.020;5.304;2022-09-09T05:18:50;16.10;74.00
19214;DHT22;9741;51.020;5.304;2022-09-09T05:21:19;16.10;74.10
19214;DHT22;9741;51.020;5.304;2022-09-09T05:23:46;16.10;74.10
19214;DHT22;9741;51.020;5.304;2022-09-09T05:26:15;16.20;74.10
19214;DHT22;9741;51.020;5.304;2022-09-09T05:28:42;16.20;74.10
19214;DHT22;9741;51.020;5.304;2022-09-09T05:31:11;16.20;74.10
19214;DHT22;9741;51.020;5.304;2022-09-09T05:33:39;16.20;74.20
19214;DHT22;9741;51.020;5.304;2022-09-09T05:36:10;16.20;74.30
19214;DHT22;9741;51.020;5.304;2022-09-09T05:38:39;16.20;74.50
19214;DHT22;9741;51.020;5.304;2022-09-09T05:41:07;16.30;74.70
19214;DHT22;9741;51.020;5.304;2022-09-09T05:43:35;16.30;74.70
19214;DHT22;9741;51.020;5.304;2022-09-09T05:46:04;16.30;74.70
19214;DHT22;9741;51.020;5.304;2022-09-09T05:48:32;16.40;74.90
19214;DHT22;9741;51.020;5.304;2022-09-09T05:51:01;16.40;74.90
19214;DHT22;9741;51.020;5.304;2022-09-09T05:53:30;16.50;74.90
19214;DHT22;9741;51.020;5.304;2022-09-09T05:56:00;16.50;74.90
19214;DHT22;9741;51.020;5.304;2022-09-09T05:58:29;16.60;75.00
19214;DHT22;9741;51.020;5.304;2022-09-09T06:01:04;16.60;75.50
19214;DHT22;9741;51.020;5.304;2022-09-09T06:03:34;16.70;75.00
19214;DHT22;9741;51.020;5.304;2022-09-09T06:06:02;16.70;75.00
19214;DHT22;9741;51.020;5.304;2022-09-09T06:08:32;16.70;75.00
19214;DHT22;9741;51.020;5.304;2022-09-09T06:11:03;16.80;75.10
19214;DHT22;9741;51.020;5.304;2022-09-09T06:13:31;16.80;75.30
19214;DHT22;9741;51.020;5.304;2022-09-09T06:15:58;16.90;75.40
19214;DHT22;9741;51.020;5.304;2022-09-09T06:18:26;17.00;75.60
19214;DHT22;9741;51.020;5.304;2022-09-09T06:20:57;17.10;75.60
19214;DHT22;9741;51.020;5.304;2022-09-09T06:23:24;17.10;75.50
19214;DHT22;9741;51.020;5.304;2022-09-09T06:26:01;17.20;75.50
19214;DHT22;9741;51.020;5.304;2022-09-09T06:28:28;17.30;75.50
19214;DHT22;9741;51.020;5.304;2022-09-09T06:30:58;17.30;75.50
19214;DHT22;9741;51.020;5.304;2022-09-09T06:33:25;17.40;75.40
19214;DHT22;9741;51.020;5.304;2022-09-09T06:35:53;17.50;75.30
19214;DHT22;9741;51.020;5.304;2022-09-09T06:38:22;17.50;75.10
19214;DHT22;9741;51.020;5.304;2022-09-09T06:40:55;17.50;75.00
19214;DHT22;9741;51.020;5.304;2022-09-09T06:43:24;17.50;75.00
19214;DHT22;9741;51.020;5.304;2022-09-09T06:45:55;17.50;75.10
19214;DHT22;9741;51.020;5.304;2022-09-09T06:48:23;17.50;75.20
19214;DHT22;9741;51.020;5.304;2022-09-09T06:50:51;17.60;75.20
19214;DHT22;9741;51.020;5.304;2022-09-09T06:53:26;17.60;75.10
19214;DHT22;9741;51.020;5.304;2022-09-09T06:55:55;17.70;75.40
19214;DHT22;9741;51.020;5.304;2022-09-09T06:58:22;17.80;75.80
19214;DHT22;9741;51.020;5.304;2022-09-09T07:00:49;17.90;76.20
19214;DHT22;9741;51.020;5.304;2022-09-09T07:03:16;18.10;76.20
19214;DHT22;9741;51.020;5.304;2022-09-09T07:05:43;18.30;76.00
19214;DHT22;9741;51.020;5.304;2022-09-09T07:08:10;18.30;75.50
19214;DHT22;9741;51.020;5.304;2022-09-09T07:10:37;18.40;75.30
19214;DHT22;9741;51.020;5.304;2022-09-09T07:13:07;18.50;75.20
19214;DHT22;9741;51.020;5.304;2022-09-09T07:15:35;18.60;75.10
19214;DHT22;9741;51.020;5.304;2022-09-09T07:18:03;18.60;74.90
19214;DHT22;9741;51.020;5.304;2022-09-09T07:20:31;18.70;75.10
19214;DHT22;9741;51.020;5.304;2022-09-09T07:22:58;18.90;75.30
19214;DHT22;9741;51.020;5.304;2022-09-09T07:25:25;19.10;75.30
19214;DHT22;9741;51.020;5.304;2022-09-09T07:27:53;19.20;74.70
19214;DHT22;9741;51.020;5.304;2022-09-09T07:30:21;19.20;74.20
19214;DHT22;9741;51.020;5.304;2022-09-09T07:32:51;19.20;73.90
19214;DHT22;9741;51.020;5.304;2022-09-09T07:35:18;19.20;73.70
19214;DHT22;9741;51.020;5.304;2022-09-09T07:37:45;19.20;73.50
19214;DHT22;9741;51.020;5.304;2022-09-09T07:40:13;19.30;73.60
19214;DHT22;9741;51.020;5.304;2022-09-09T07:42:40;19.30;73.40
19214;DHT22;9741;51.020;5.304;2022-09-09T07:45:08;19.30;73.20
19214;DHT22;9741;51.020;5.304;2022-09-09T07:47:36;19.40;73.10
19214;DHT22;9741;51.020;5.304;2022-09-09T07:50:04;19.40;73.00
19214;DHT22;9741;51.020;5.304;2022-09-09T07:52:33;19.50;73.10
19214;DHT22;9741;51.020;5.304;2022-09-09T07:55:00;19.60;73.10
19214;DHT22;9741;51.020;5.304;2022-09-09T07:57:28;19.60;72.90
19214;DHT22;9741;51.020;5.304;2022-09-09T07:59:56;19.70;72.60
19214;DHT22;9741;51.020;5.304;2022-09-09T08:02:25;19.70;72.40
19214;DHT22;9741;51.020;5.304;2022-09-09T08:04:56;19.70;72.20
19214;DHT22;9741;51.020;5.304;2022-09-09T08:07:23;19.70;72.00
19214;DHT22;9741;51.020;5.304;2022-09-09T08:09:50;19.70;71.80
19214;DHT22;9741;51.020;5.304;2022-09-09T08:12:17;19.60;71.40
19214;DHT22;9741;51.020;5.304;2022-09-09T08:14:44;19.50;71.40
19214;DHT22;9741;51.020;5.304;2022-09-09T08:17:11;19.50;71.40
19214;DHT22;9741;51.020;5.304;2022-09-09T08:19:38;19.40;70.90
19214;DHT22;9741;51.020;5.304;2022-09-09T08:22:07;19.40;71.30
19214;DHT22;9741;51.020;5.304;2022-09-09T08:24:34;19.30;71.30
19214;DHT22;9741;51.020;5.304;2022-09-09T08:27:01;19.30;71.30
19214;DHT22;9741;51.020;5.304;2022-09-09T08:29:28;19.40;71.50
19214;DHT22;9741;51.020;5.304;2022-09-09T08:31:56;19.40;71.50
19214;DHT22;9741;51.020;5.304;2022-09-09T08:34:24;19.40;71.60
19214;DHT22;9741;51.020;5.304;2022-09-09T08:36:53;19.50;71.70
19214;DHT22;9741;51.020;5.304;2022-09-09T08:39:22;19.60;71.40
19214;DHT22;9741;51.020;5.304;2022-09-09T08:42:10;19.70;71.30
19214;DHT22;9741;51.020;5.304;2022-09-09T08:44:53;19.70;71.30
19214;DHT22;9741;51.020;5.304;2022-09-09T08:47:31;19.80;71.30
19214;DHT22;9741;51.020;5.304;2022-09-09T08:50:16;19.80;71.20
19214;DHT22;9741;51.020;5.304;2022-09-09T08:52:52;19.90;71.10
19214;DHT22;9741;51.020;5.304;2022-09-09T08:55:25;19.80;70.90
19214;DHT22;9741;51.020;5.304;2022-09-09T08:57:55;19.80;70.70
19214;DHT22;9741;51.020;5.304;2022-09-09T09:00:29;19.70;70.70
19214;DHT22;9741;51.020;5.304;2022-09-09T09:03:05;19.70;70.70
19214;DHT22;9741;51.020;5.304;2022-09-09T09:05:40;19.70;70.70
19214;DHT22;9741;51.020;5.304;2022-09-09T09:08:17;19.60;70.60
19214;DHT22;9741;51.020;5.304;2022-09-09T09:10:50;19.60;70.70
19214;DHT22;9741;51.020;5.304;2022-09-09T09:13:19;19.60;70.80
19214;DHT22;9741;51.020;5.304;2022-09-09T09:15:52;19.60;70.90
19214;DHT22;9741;51.020;5.304;2022-09-09T09:18:20;19.70;70.90
19214;DHT22;9741;51.020;5.304;2022-09-09T09:20:53;19.70;70.70
19214;DHT22;9741;51.020;5.304;2022-09-09T09:23:23;19.70;70.60
19214;DHT22;9741;51.020;5.304;2022-09-09T09:25:56;19.70;70.60
19214;DHT22;9741;51.020;5.304;2022-09-09T09:28:27;19.70;70.50
19214;DHT22;9741;51.020;5.304;2022-09-09T09:30:59;19.60;70.60
19214;DHT22;9741;51.020;5.304;2022-09-09T09:33:30;19.70;70.80
19214;DHT22;9741;51.020;5.304;2022-09-09T09:36:08;19.70;70.80
19214;DHT22;9741;51.020;5.304;2022-09-09T09:38:36;19.80;70.70
19214;DHT22;9741;51.020;5.304;2022-09-09T09:41:07;19.90;70.60
19214;DHT22;9741;51.020;5.304;2022-09-09T09:43:35;20.00;70.50
19214;DHT22;9741;51.020;5.304;2022-09-09T09:46:04;20.00;70.40
19214;DHT22;9741;51.020;5.304;2022-09-09T09:48:31;20.00;70.10
19214;DHT22;9741;51.020;5.304;2022-09-09T09:51:00;20.00;70.00
19214;DHT22;9741;51.020;5.304;2022-09-09T09:53:29;20.00;70.00
19214;DHT22;9741;51.020;5.304;2022-09-09T09:55:58;20.00;70.00
19214;DHT22;9741;51.020;5.304;2022-09-09T09:58:30;20.10;70.00
19214;DHT22;9741;51.020;5.304;2022-09-09T10:01:00;20.10;69.80
19214;DHT22;9741;51.020;5.304;2022-09-09T10:03:28;20.10;69.70
19214;DHT22;9741;51.020;5.304;2022-09-09T10:05:56;20.10;69.70
19214;DHT22;9741;51.020;5.304;2022-09-09T10:08:25;20.00;69.70
19214;DHT22;9741;51.020;5.304;2022-09-09T10:11:14;20.00;69.70
19214;DHT22;9741;51.020;5.304;2022-09-09T10:13:53;19.80;69.50
19214;DHT22;9741;51.020;5.304;2022-09-09T10:16:37;19.70;69.70
19214;DHT22;9741;51.020;5.304;2022-09-09T10:19:12;19.60;70.00
19214;DHT22;9741;51.020;5.304;2022-09-09T10:21:59;19.50;70.20
19214;DHT22;9741;51.020;5.304;2022-09-09T10:24:47;19.40;70.30
19214;DHT22;9741;51.020;5.304;2022-09-09T10:27:20;19.30;70.50
19214;DHT22;9741;51.020;5.304;2022-09-09T10:30:09;19.20;70.80
19214;DHT22;9741;51.020;5.304;2022-09-09T10:32:48;19.20;71.00
19214;DHT22;9741;51.020;5.304;2022-09-09T10:35:31;19.10;71.10
19214;DHT22;9741;51.020;5.304;2022-09-09T10:38:15;19.20;71.40
19214;DHT22;9741;51.020;5.304;2022-09-09T10:40:59;19.10;71.30
19214;DHT22;9741;51.020;5.304;2022-09-09T10:43:52;19.10;71.40
19214;DHT22;9741;51.020;5.304;2022-09-09T10:46:33;19.00;71.40
19214;DHT22;9741;51.020;5.304;2022-09-09T10:49:13;19.00;71.50
19214;DHT22;9741;51.020;5.304;2022-09-09T10:51:51;18.90;71.60
19214;DHT22;9741;51.020;5.304;2022-09-09T10:54:32;19.00;71.90
19214;DHT22;9741;51.020;5.304;2022-09-09T10:57:05;19.00;72.10
19214;DHT22;9741;51.020;5.304;2022-09-09T10:59:40;19.00;72.50
19214;DHT22;9741;51.020;5.304;2022-09-09T11:02:15;19.20;72.70
19214;DHT22;9741;51.020;5.304;2022-09-09T11:04:50;19.30;73.30
19214;DHT22;9741;51.020;5.304;2022-09-09T11:07:27;19.50;72.90
19214;DHT22;9741;51.020;5.304;2022-09-09T11:09:59;19.70;73.20
19214;DHT22;9741;51.020;5.304;2022-09-09T11:12:30;19.80;73.10
19214;DHT22;9741;51.020;5.304;2022-09-09T11:15:01;20.00;73.20
19214;DHT22;9741;51.020;5.304;2022-09-09T11:17:36;20.10;73.00
19214;DHT22;9741;51.020;5.304;2022-09-09T11:20:06;20.20;72.90
19214;DHT22;9741;51.020;5.304;2022-09-09T11:22:42;20.20;72.80
19214;DHT22;9741;51.020;5.304;2022-09-09T11:25:15;20.30;72.90
19214;DHT22;9741;51.020;5.304;2022-09-09T11:27:56;20.30;72.80
19214;DHT22;9741;51.020;5.304;2022-09-09T11:30:33;20.40;72.70
19214;DHT22;9741;51.020;5.304;2022-09-09T11:33:24;20.50;72.70
19214;DHT22;9741;51.020;5.304;2022-09-09T11:38:52;20.70;73.40
19214;DHT22;9741;51.020;5.304;2022-09-09T11:41:20;20.80;72.90
19214;DHT22;9741;51.020;5.304;2022-09-09T11:43:50;20.80;72.70
19214;DHT22;9741;51.020;5.304;2022-09-09T11:46:20;20.80;72.60
19214;DHT22;9741;51.020;5.304;2022-09-09T11:49:00;20.80;72.50
19214;DHT22;9741;51.020;5.304;2022-09-09T11:51:28;20.90;72.50
19214;DHT22;9741;51.020;5.304;2022-09-09T11:53:57;20.90;72.70
19214;DHT22;9741;51.020;5.304;2022-09-09T11:56:29;21.00;72.70
19214;DHT22;9741;51.020;5.304;2022-09-09T11:59:00;21.00;73.20
19214;DHT22;9741;51.020;5.304;2022-09-09T12:01:34;21.00;72.60
19214;DHT22;9741;51.020;5.304;2022-09-09T12:04:33;21.10;72.60
19214;DHT22;9741;51.020;5.304;2022-09-09T12:07:04;21.20;72.60
19214;DHT22;9741;51.020;5.304;2022-09-09T12:09:44;21.20;72.60
19214;DHT22;9741;51.020;5.304;2022-09-09T12:12:37;21.30;72.50
19214;DHT22;9741;51.020;5.304;2022-09-09T12:15:23;21.30;72.10
19214;DHT22;9741;51.020;5.304;2022-09-09T12:17:53;21.30;72.10
19214;DHT22;9741;51.020;5.304;2022-09-09T12:20:23;21.20;72.00
19214;DHT22;9741;51.020;5.304;2022-09-09T12:25:54;21.30;72.10
19214;DHT22;9741;51.020;5.304;2022-09-09T12:28:27;21.30;72.00
19214;DHT22;9741;51.020;5.304;2022-09-09T12:31:02;21.30;71.90
19214;DHT22;9741;51.020;5.304;2022-09-09T12:33:34;21.30;71.90
19214;DHT22;9741;51.020;5.304;2022-09-09T12:36:04;21.40;72.10
19214;DHT22;9741;51.020;5.304;2022-09-09T12:38:37;21.40;72.00
19214;DHT22;9741;51.020;5.304;2022-09-09T12:41:05;21.50;72.00
19214;DHT22;9741;51.020;5.304;2022-09-09T12:43:35;21.60;72.00
19214;DHT22;9741;51.020;5.304;2022-09-09T12:46:06;21.70;71.80
19214;DHT22;9741;51.020;5.304;2022-09-09T12:48:38;21.80;71.70
19214;DHT22;9741;51.020;5.304;2022-09-09T12:51:25;21.80;71.40
19214;DHT22;9741;51.020;5.304;2022-09-09T12:53:54;22.00;71.40
19214;DHT22;9741;51.020;5.304;2022-09-09T12:56:24;22.10;71.30
19214;DHT22;9741;51.020;5.304;2022-09-09T12:58:55;22.10;71.10
19214;DHT22;9741;51.020;5.304;2022-09-09T13:01:26;22.20;71.20
19214;DHT22;9741;51.020;5.304;2022-09-09T13:03:54;22.40;71.20
19214;DHT22;9741;51.020;5.304;2022-09-09T13:06:24;22.50;70.90
19214;DHT22;9741;51.020;5.304;2022-09-09T13:08:52;22.60;70.60
19214;DHT22;9741;51.020;5.304;2022-09-09T13:11:21;22.70;70.30
19214;DHT22;9741;51.020;5.304;2022-09-09T13:13:52;22.70;69.80
19214;DHT22;9741;51.020;5.304;2022-09-09T13:16:22;22.70;69.50
19214;DHT22;9741;51.020;5.304;2022-09-09T13:18:50;22.70;69.40
19214;DHT22;9741;51.020;5.304;2022-09-09T13:21:18;22.80;69.40
19214;DHT22;9741;51.020;5.304;2022-09-09T13:23:50;22.80;69.20
19214;DHT22;9741;51.020;5.304;2022-09-09T13:26:23;22.90;68.90
19214;DHT22;9741;51.020;5.304;2022-09-09T13:28:52;22.80;68.50
19214;DHT22;9741;51.020;5.304;2022-09-09T13:31:22;22.80;68.30
19214;DHT22;9741;51.020;5.304;2022-09-09T13:33:49;22.80;68.60
19214;DHT22;9741;51.020;5.304;2022-09-09T13:36:28;22.80;68.10
19214;DHT22;9741;51.020;5.304;2022-09-09T13:38:59;22.80;67.80
19214;DHT22;9741;51.020;5.304;2022-09-09T13:41:29;22.80;67.90
19214;DHT22;9741;51.020;5.304;2022-09-09T13:43:58;22.80;67.80
19214;DHT22;9741;51.020;5.304;2022-09-09T13:46:33;22.70;67.70
19214;DHT22;9741;51.020;5.304;2022-09-09T13:49:17;22.60;67.60
19214;DHT22;9741;51.020;5.304;2022-09-09T13:51:47;22.60;67.80
19214;DHT22;9741;51.020;5.304;2022-09-09T13:54:21;22.60;67.90
19214;DHT22;9741;51.020;5.304;2022-09-09T13:56:48;22.50;67.70
19214;DHT22;9741;51.020;5.304;2022-09-09T13:59:19;22.50;67.50
19214;DHT22;9741;51.020;5.304;2022-09-09T14:01:47;22.40;67.30
19214;DHT22;9741;51.020;5.304;2022-09-09T14:04:14;22.40;67.30
19214;DHT22;9741;51.020;5.304;2022-09-09T14:06:42;22.40;67.10
19214;DHT22;9741;51.020;5.304;2022-09-09T14:09:11;22.40;66.80
19214;DHT22;9741;51.020;5.304;2022-09-09T14:11:41;22.40;66.50
19214;DHT22;9741;51.020;5.304;2022-09-09T14:14:08;22.30;66.20
19214;DHT22;9741;51.020;5.304;2022-09-09T14:16:35;22.30;66.10
19214;DHT22;9741;51.020;5.304;2022-09-09T14:19:03;22.20;66.00
19214;DHT22;9741;51.020;5.304;2022-09-09T14:21:30;22.20;66.10
19214;DHT22;9741;51.020;5.304;2022-09-09T14:23:58;22.20;66.20
19214;DHT22;9741;51.020;5.304;2022-09-09T14:26:25;22.30;66.30
19214;DHT22;9741;51.020;5.304;2022-09-09T14:28:56;22.30;66.20
19214;DHT22;9741;51.020;5.304;2022-09-09T14:31:24;22.40;66.20
19214;DHT22;9741;51.020;5.304;2022-09-09T14:33:53;22.40;66.20
19214;DHT22;9741;51.020;5.304;2022-09-09T14:36:20;22.50;66.10
19214;DHT22;9741;51.020;5.304;2022-09-09T14:38:50;22.50;66.00
19214;DHT22;9741;51.020;5.304;2022-09-09T14:41:18;22.50;66.00
19214;DHT22;9741;51.020;5.304;2022-09-09T14:43:48;22.50;66.10
19214;DHT22;9741;51.020;5.304;2022-09-09T14:46:17;22.60;66.30
19214;DHT22;9741;51.020;5.304;2022-09-09T14:48:48;22.60;66.00
19214;DHT22;9741;51.020;5.304;2022-09-09T14:51:25;22.70;66.00
19214;DHT22;9741;51.020;5.304;2022-09-09T14:53:54;22.80;65.90
19214;DHT22;9741;51.020;5.304;2022-09-09T14:56:23;22.80;65.60
19214;DHT22;9741;51.020;5.304;2022-09-09T14:58:53;22.90;65.50
19214;DHT22;9741;51.020;5.304;2022-09-09T15:01:23;23.00;65.60
19214;DHT22;9741;51.020;5.304;2022-09-09T15:04:05;23.00;65.60
19214;DHT22;9741;51.020;5.304;2022-09-09T15:06:35;23.10;65.60
19214;DHT22;9741;51.020;5.304;2022-09-09T15:09:05;23.20;65.50
19214;DHT22;9741;51.020;5.304;2022-09-09T15:11:34;23.20;65.30
19214;DHT22;9741;51.020;5.304;2022-09-09T15:14:07;23.20;65.10
19214;DHT22;9741;51.020;5.304;2022-09-09T15:16:39;23.20;64.90
19214;DHT22;9741;51.020;5.304;2022-09-09T15:19:06;23.10;64.60
19214;DHT22;9741;51.020;5.304;2022-09-09T15:21:35;23.10;64.50
19214;DHT22;9741;51.020;5.304;2022-09-09T15:24:04;23.00;64.30
19214;DHT22;9741;51.020;5.304;2022-09-09T15:26:32;23.00;64.30
19214;DHT22;9741;51.020;5.304;2022-09-09T15:29:00;23.00;64.30
19214;DHT22;9741;51.020;5.304;2022-09-09T15:31:28;23.00;64.20
19214;DHT22;9741;51.020;5.304;2022-09-09T15:34:07;22.90;64.10
19214;DHT22;9741;51.020;5.304;2022-09-09T15:36:45;23.00;63.80
19214;DHT22;9741;51.020;5.304;2022-09-09T15:39:15;22.90;63.80
19214;DHT22;9741;51.020;5.304;2022-09-09T15:42:05;22.90;63.70
19214;DHT22;9741;51.020;5.304;2022-09-09T15:44:39;22.90;63.50
19214;DHT22;9741;51.020;5.304;2022-09-09T15:47:07;22.80;63.50
19214;DHT22;9741;51.020;5.304;2022-09-09T15:49:39;22.80;63.60
19214;DHT22;9741;51.020;5.304;2022-09-09T15:53:45;22.80;63.50
19214;DHT22;9741;51.020;5.304;2022-09-09T15:55:32;22.70;63.20
19214;DHT22;9741;51.020;5.304;2022-09-09T15:58:02;22.70;63.80
19214;DHT22;9741;51.020;5.304;2022-09-09T16:00:39;22.60;63.60
19214;DHT22;9741;51.020;5.304;2022-09-09T16:03:11;22.60;63.80
19214;DHT22;9741;51.020;5.304;2022-09-09T16:05:40;22.50;63.70
19214;DHT22;9741;51.020;5.304;2022-09-09T16:08:13;22.50;63.50
19214;DHT22;9741;51.020;5.304;2022-09-09T16:10:43;22.60;63.50
19214;DHT22;9741;51.020;5.304;2022-09-09T16:13:10;22.50;63.20
19214;DHT22;9741;51.020;5.304;2022-09-09T16:15:42;22.50;63.10
19214;DHT22;9741;51.020;5.304;2022-09-09T16:18:15;22.40;63.00